sensor_id;sensor_type;location;lat;lon;timestamp;pressure;altitude;pressure_sealevel;temperature;humidity
71424;BME280;59240;51.370;-0.486;2022-11-04T00:01:58;99882.97;;;8.57;100.00
71424;BME280;59240;51.370;-0.486;2022-11-04T00:04:26;99892.50;;;8.56;100.00
71424;BME280;59240;51.370;-0.486;2022-11-04T00:06:54;99900.28;;;8.56;100.00
71424;BME280;59240;51.370;-0.486;2022-11-04T00:09:24;99902.94;;;8.55;100.00
71424;BME280;59240;51.370;-0.486;2022-11-04T00:11:52;99909.00;;;8.54;100.00
71424;BME280;59240;51.370;-0.486;2022-11-04T00:14:37;99908.22;;;8.52;100.00
71424;BME280;59240;51.370;-0.486;2022-11-04T00:17:04;99924.53;;;8.55;100.00
71424;BME280;59240;51.370;-0.486;2022-11-04T00:19:53;99921.16;;;8.53;100.00
71424;BME280;59240;51.370;-0.486;2022-11-04T00:22:40;99921.94;;;8.55;100.00
71424;BME280;59240;51.370;-0.486;2022-11-04T00:25:26;99921.16;;;8.53;100.00
71424;BME280;59240;51.370;-0.486;2022-11-04T00:28:16;99929.66;;;8.58;100.00
71424;BME280;59240;51.370;-0.486;2022-11-04T00:31:03;99934.88;;;8.58;100.00
71424;BME280;59240;51.370;-0.486;2022-11-04T00:33:49;99929.66;;;8.58;100.00
71424;BME280;59240;51.370;-0.486;2022-11-04T00:36:16;99933.22;;;8.54;100.00
71424;BME280;59240;51.370;-0.486;2022-11-04T00:38:43;99952.94;;;8.61;100.00
71424;BME280;59240;51.370;-0.486;2022-11-04T00:41:10;99943.44;;;8.60;100.00
71424;BME280;59240;51.370;-0.486;2022-11-04T00:43:58;99952.03;;;8.62;100.00
71424;BME280;59240;51.370;-0.486;2022-11-04T00:46:27;99942.56;;;8.61;100.00
71424;BME280;59240;51.370;-0.486;2022-11-04T00:48:54;99955.53;;;8.61;100.00
71424;BME280;59240;51.370;-0.486;2022-11-04T00:51:21;99948.75;;;8.56;100.00
71424;BME280;59240;51.370;-0.486;2022-11-04T00:53:48;99964.38;;;8.54;100.00
71424;BME280;59240;51.370;-0.486;2022-11-04T00:56:15;99954.09;;;8.51;100.00
71424;BME280;59240;51.370;-0.486;2022-11-04T00:58:42;99955.94;;;8.46;100.00
71424;BME280;59240;51.370;-0.486;2022-11-04T01:01:10;99960.28;;;8.45;100.00
71424;BME280;59240;51.370;-0.486;2022-11-04T01:03:37;99963.66;;;8.49;100.00
71424;BME280;59240;51.370;-0.486;2022-11-04T01:06:04;99982.66;;;8.51;100.00
71424;BME280;59240;51.370;-0.486;2022-11-04T01:08:31;99970.53;;;8.50;100.00
71424;BME280;59240;51.370;-0.486;2022-11-04T01:11:06;99971.44;;;8.49;100.00
71424;BME280;59240;51.370;-0.486;2022-11-04T01:13:33;99974.91;;;8.48;100.00
71424;BME280;59240;51.370;-0.486;2022-11-04T01:16:01;99971.59;;;8.43;100.00
71424;BME280;59240;51.370;-0.486;2022-11-04T01:18:28;99979.22;;;8.49;100.00
71424;BME280;59240;51.370;-0.486;2022-11-04T01:20:59;99987.06;;;8.47;100.00
71424;BME280;59240;51.370;-0.486;2022-11-04T01:23:26;99987.09;;;8.46;100.00
71424;BME280;59240;51.370;-0.486;2022-11-04T01:25:52;99992.34;;;8.43;100.00
71424;BME280;59240;51.370;-0.486;2022-11-04T01:28:19;99999.25;;;8.44;100.00
71424;BME280;59240;51.370;-0.486;2022-11-04T01:30:45;100003.56;;;8.45;100.00
71424;BME280;59240;51.370;-0.486;2022-11-04T01:33:12;99995.94;;;8.39;100.00
71424;BME280;59240;51.370;-0.486;2022-11-04T01:35:38;100003.66;;;8.40;100.00
71424;BME280;59240;51.370;-0.486;2022-11-04T01:38:05;100011.41;;;8.42;100.00
71424;BME280;59240;51.370;-0.486;2022-11-04T01:40:39;100023.50;;;8.43;100.00
71424;BME280;59240;51.370;-0.486;2022-11-04T01:43:13;100020.91;;;8.43;100.00
71424;BME280;59240;51.370;-0.486;2022-11-04T01:45:43;100021.03;;;8.38;100.00
71424;BME280;59240;51.370;-0.486;2022-11-04T01:48:16;100033.03;;;8.42;100.00
71424;BME280;59240;51.370;-0.486;2022-11-04T01:50:47;100024.38;;;8.42;100.00
71424;BME280;59240;51.370;-0.486;2022-11-04T01:53:23;100033.03;;;8.42;100.00
71424;BME280;59240;51.370;-0.486;2022-11-04T01:55:55;100035.66;;;8.41;100.00
71424;BME280;59240;51.370;-0.486;2022-11-04T01:58:26;100040.75;;;8.44;100.00
71424;BME280;59240;51.370;-0.486;2022-11-04T02:00:54;100036.50;;;8.41;100.00
71424;BME280;59240;51.370;-0.486;2022-11-04T02:06:10;100058.94;;;8.44;100.00
71424;BME280;59240;51.370;-0.486;2022-11-04T02:08:38;100068.47;;;8.45;100.00
71424;BME280;59240;51.370;-0.486;2022-11-04T02:11:05;100065.91;;;8.42;100.00
71424;BME280;59240;51.370;-0.486;2022-11-04T02:13:34;100075.50;;;8.40;100.00
71424;BME280;59240;51.370;-0.486;2022-11-04T02:35:28;100131.81;;;8.35;100.00
71424;BME280;59240;51.370;-0.486;2022-11-04T02:38:20;100145.72;;;8.32;100.00
71424;BME280;59240;51.370;-0.486;2022-11-04T02:49:07;100170.88;;;8.29;100.00
71424;BME280;59240;51.370;-0.486;2022-11-04T02:51:57;100172.66;;;8.27;100.00
71424;BME280;59240;51.370;-0.486;2022-11-04T02:57:00;100177.16;;;8.18;100.00
71424;BME280;59240;51.370;-0.486;2022-11-04T02:59:38;100188.31;;;8.23;100.00
71424;BME280;59240;51.370;-0.486;2022-11-04T03:02:09;100196.09;;;8.22;100.00
71424;BME280;59240;51.370;-0.486;2022-11-04T03:04:39;100201.41;;;8.17;100.00
71424;BME280;59240;51.370;-0.486;2022-11-04T03:07:10;100193.75;;;8.11;100.00
71424;BME280;59240;51.370;-0.486;2022-11-04T03:09:46;100212.72;;;8.13;100.00
71424;BME280;59240;51.370;-0.486;2022-11-04T03:12:17;100221.41;;;8.12;100.00
71424;BME280;59240;51.370;-0.486;2022-11-04T03:14:50;100214.63;;;8.05;100.00
71424;BME280;59240;51.370;-0.486;2022-11-04T03:17:26;100230.13;;;8.08;100.00
71424;BME280;59240;51.370;-0.486;2022-11-04T03:19:58;100230.19;;;8.05;100.00
71424;BME280;59240;51.370;-0.486;2022-11-04T03:22:28;100228.53;;;8.01;100.00
71424;BME280;59240;51.370;-0.486;2022-11-04T03:24:56;100236.38;;;7.98;100.00
71424;BME280;59240;51.370;-0.486;2022-11-04T03:27:28;100242.50;;;7.94;100.00
71424;BME280;59240;51.370;-0.486;2022-11-04T03:30:19;100245.19;;;7.91;100.00
71424;BME280;59240;51.370;-0.486;2022-11-04T03:35:26;100251.38;;;7.84;100.00
71424;BME280;59240;51.370;-0.486;2022-11-04T03:37:54;100249.72;;;7.80;100.00
71424;BME280;59240;51.370;-0.486;2022-11-04T03:40:20;100239.53;;;7.71;100.00
71424;BME280;59240;51.370;-0.486;2022-11-04T03:42:54;100253.31;;;7.73;100.00
71424;BME280;59240;51.370;-0.486;2022-11-04T03:45:23;100261.13;;;7.71;100.00
71424;BME280;59240;51.370;-0.486;2022-11-04T03:47:50;100256.81;;;7.68;100.00
71424;BME280;59240;51.370;-0.486;2022-11-04T03:50:24;100259.53;;;7.64;100.00
71424;BME280;59240;51.370;-0.486;2022-11-04T03:52:52;100255.22;;;7.61;100.00
71424;BME280;59240;51.370;-0.486;2022-11-04T03:55:19;100248.34;;;7.60;100.00
71424;BME280;59240;51.370;-0.486;2022-11-04T04:00:20;100271.72;;;7.57;100.00
71424;BME280;59240;51.370;-0.486;2022-11-04T04:03:06;100274.44;;;7.51;100.00
71424;BME280;59240;51.370;-0.486;2022-11-04T04:05:59;100267.75;;;7.38;100.00
71424;BME280;59240;51.370;-0.486;2022-11-04T04:08:44;100288.31;;;7.47;100.00
71424;BME280;59240;51.370;-0.486;2022-11-04T04:11:18;100295.25;;;7.45;100.00
71424;BME280;59240;51.370;-0.486;2022-11-04T04:13:59;100299.63;;;7.43;100.00
71424;BME280;59240;51.370;-0.486;2022-11-04T04:19:17;100314.38;;;7.38;100.00
71424;BME280;59240;51.370;-0.486;2022-11-04T04:24:14;100319.63;;;7.35;100.00
71424;BME280;59240;51.370;-0.486;2022-11-04T04:27:01;100330.03;;;7.32;100.00
71424;BME280;59240;51.370;-0.486;2022-11-04T04:29:47;100340.47;;;7.29;100.00
71424;BME280;59240;51.370;-0.486;2022-11-04T04:32:15;100344.03;;;7.22;100.00
71424;BME280;59240;51.370;-0.486;2022-11-04T04:34:43;100362.06;;;7.26;100.00
71424;BME280;59240;51.370;-0.486;2022-11-04T04:37:20;100362.97;;;7.24;100.00
71424;BME280;59240;51.370;-0.486;2022-11-04T04:39:53;100354.47;;;7.16;100.00
71424;BME280;59240;51.370;-0.486;2022-11-04T04:42:46;100376.75;;;7.26;100.00
71424;BME280;59240;51.370;-0.486;2022-11-04T04:45:50;100377.69;;;7.23;100.00
71424;BME280;59240;51.370;-0.486;2022-11-04T04:48:17;100382.00;;;7.23;100.00
71424;BME280;59240;51.370;-0.486;2022-11-04T04:50:48;100395.84;;;7.22;100.00
71424;BME280;59240;51.370;-0.486;2022-11-04T04:53:16;100407.09;;;7.18;100.00
71424;BME280;59240;51.370;-0.486;2022-11-04T04:55:43;100414.88;;;7.18;100.00
71424;BME280;59240;51.370;-0.486;2022-11-04T04:58:09;100414.06;;;7.16;100.00
71424;BME280;59240;51.370;-0.486;2022-11-04T05:00:36;100421.81;;;7.16;100.00
71424;BME280;59240;51.370;-0.486;2022-11-04T05:03:02;100420.16;;;7.11;100.00
71424;BME280;59240;51.370;-0.486;2022-11-04T05:05:29;100429.69;;;7.06;100.00
71424;BME280;59240;51.370;-0.486;2022-11-04T05:08:03;100447.88;;;7.03;100.00
71424;BME280;59240;51.370;-0.486;2022-11-04T05:10:29;100453.13;;;7.00;100.00
71424;BME280;59240;51.370;-0.486;2022-11-04T05:12:56;100460.03;;;6.98;100.00
71424;BME280;59240;51.370;-0.486;2022-11-04T05:15:42;100466.09;;;6.97;100.00
71424;BME280;59240;51.370;-0.486;2022-11-04T05:18:09;100472.16;;;6.96;100.00
71424;BME280;59240;51.370;-0.486;2022-11-04T05:20:36;100475.56;;;6.98;100.00
71424;BME280;59240;51.370;-0.486;2022-11-04T05:23:06;100485.97;;;6.95;100.00
71424;BME280;59240;51.370;-0.486;2022-11-04T05:25:33;100503.22;;;6.96;100.00
71424;BME280;59240;51.370;-0.486;2022-11-04T05:28:00;100512.75;;;6.94;100.00
71424;BME280;59240;51.370;-0.486;2022-11-04T05:30:27;100516.22;;;6.93;100.00
71424;BME280;59240;51.370;-0.486;2022-11-04T05:32:53;100508.47;;;6.90;100.00
71424;BME280;59240;51.370;-0.486;2022-11-04T05:35:26;100524.00;;;6.90;100.00
71424;BME280;59240;51.370;-0.486;2022-11-04T05:37:56;100527.47;;;6.89;100.00
71424;BME280;59240;51.370;-0.486;2022-11-04T05:40:23;100523.22;;;6.83;100.00
71424;BME280;59240;51.370;-0.486;2022-11-04T05:42:49;100537.84;;;6.89;100.00
71424;BME280;59240;51.370;-0.486;2022-11-04T05:45:16;100536.19;;;6.82;100.00
71424;BME280;59240;51.370;-0.486;2022-11-04T05:47:43;100548.19;;;6.86;100.00
71424;BME280;59240;51.370;-0.486;2022-11-04T05:50:09;100556.03;;;6.81;100.00
71424;BME280;59240;51.370;-0.486;2022-11-04T05:52:36;100566.41;;;6.81;100.00
71424;BME280;59240;51.370;-0.486;2022-11-04T05:55:02;100582.78;;;6.82;100.00
71424;BME280;59240;51.370;-0.486;2022-11-04T05:57:29;100580.22;;;6.79;100.00
71424;BME280;59240;51.370;-0.486;2022-11-04T05:59:55;100587.13;;;6.78;100.00
71424;BME280;59240;51.370;-0.486;2022-11-04T06:02:22;100588.03;;;6.76;100.00
71424;BME280;59240;51.370;-0.486;2022-11-04T06:04:49;100592.34;;;6.72;100.00
71424;BME280;59240;51.370;-0.486;2022-11-04T06:07:15;100594.16;;;6.66;100.00
71424;BME280;59240;51.370;-0.486;2022-11-04T06:09:42;100609.66;;;6.69;100.00
71424;BME280;59240;51.370;-0.486;2022-11-04T06:12:10;100620.88;;;6.68;100.00
71424;BME280;59240;51.370;-0.486;2022-11-04T06:14:37;100626.94;;;6.67;100.00
71424;BME280;59240;51.370;-0.486;2022-11-04T06:17:04;100628.66;;;6.65;100.00
71424;BME280;59240;51.370;-0.486;2022-11-04T06:19:30;100646.81;;;6.62;100.00
71424;BME280;59240;51.370;-0.486;2022-11-04T06:21:57;100662.34;;;6.62;100.00
71424;BME280;59240;51.370;-0.486;2022-11-04T06:24:24;100669.28;;;6.60;100.00
71424;BME280;59240;51.370;-0.486;2022-11-04T06:26:51;100681.38;;;6.59;100.00
71424;BME280;59240;51.370;-0.486;2022-11-04T06:29:17;100674.50;;;6.53;100.00
71424;BME280;59240;51.370;-0.486;2022-11-04T06:31:44;100682.25;;;6.50;100.00
71424;BME280;59240;51.370;-0.486;2022-11-04T06:34:10;100674.56;;;6.41;100.00
71424;BME280;59240;51.370;-0.486;2022-11-04T06:36:37;100699.56;;;6.45;100.00
71424;BME280;59240;51.370;-0.486;2022-11-04T06:39:04;100709.06;;;6.43;100.00
71424;BME280;59240;51.370;-0.486;2022-11-04T06:41:31;100709.94;;;6.41;100.00
71424;BME280;59240;51.370;-0.486;2022-11-04T06:43:57;100696.22;;;6.28;100.00
71424;BME280;59240;51.370;-0.486;2022-11-04T06:46:27;100722.94;;;6.33;100.00
71424;BME280;59240;51.370;-0.486;2022-11-04T06:48:56;100727.25;;;6.29;100.00
71424;BME280;59240;51.370;-0.486;2022-11-04T06:51:23;100733.31;;;6.27;100.00
71424;BME280;59240;51.370;-0.486;2022-11-04T06:53:50;100736.78;;;6.20;100.00
71424;BME280;59240;51.370;-0.486;2022-11-04T06:56:16;100749.72;;;6.21;100.00
71424;BME280;59240;51.370;-0.486;2022-11-04T06:58:47;100758.34;;;6.20;100.00
71424;BME280;59240;51.370;-0.486;2022-11-04T07:01:15;100764.38;;;6.16;100.00
71424;BME280;59240;51.370;-0.486;2022-11-04T07:03:51;100768.72;;;6.14;100.00
71424;BME280;59240;51.370;-0.486;2022-11-04T07:06:18;100794.56;;;6.16;100.00
71424;BME280;59240;51.370;-0.486;2022-11-04T07:08:46;100792.00;;;6.13;100.00
71424;BME280;59240;51.370;-0.486;2022-11-04T07:11:12;100800.59;;;6.15;100.00
71424;BME280;59240;51.370;-0.486;2022-11-04T07:13:39;100778.25;;;5.98;100.00
71424;BME280;59240;51.370;-0.486;2022-11-04T07:16:07;100817.88;;;6.11;100.00
71424;BME280;59240;51.370;-0.486;2022-11-04T07:18:34;100825.66;;;6.05;100.00
71424;BME280;59240;51.370;-0.486;2022-11-04T07:21:02;100826.47;;;6.09;100.00
71424;BME280;59240;51.370;-0.486;2022-11-04T07:23:35;100835.13;;;6.08;100.00
71424;BME280;59240;51.370;-0.486;2022-11-04T07:26:03;100845.47;;;6.01;100.00
71424;BME280;59240;51.370;-0.486;2022-11-04T07:28:31;100854.97;;;6.04;100.00
71424;BME280;59240;51.370;-0.486;2022-11-04T07:30:59;100860.97;;;6.01;100.00
71424;BME280;59240;51.370;-0.486;2022-11-04T07:33:26;100848.09;;;5.91;100.00
71424;BME280;59240;51.370;-0.486;2022-11-04T07:35:53;100870.47;;;6.02;100.00
71424;BME280;59240;51.370;-0.486;2022-11-04T07:38:23;100873.06;;;5.98;100.00
71424;BME280;59240;51.370;-0.486;2022-11-04T07:40:50;100880.81;;;6.02;100.00
71424;BME280;59240;51.370;-0.486;2022-11-04T07:43:17;100883.41;;;5.99;100.00
71424;BME280;59240;51.370;-0.486;2022-11-04T07:45:43;100885.13;;;6.00;100.00
71424;BME280;59240;51.370;-0.486;2022-11-04T07:48:10;100888.59;;;6.04;100.00
71424;BME280;59240;51.370;-0.486;2022-11-04T07:50:38;100896.31;;;6.07;100.00
71424;BME280;59240;51.370;-0.486;2022-11-04T07:53:05;100874.75;;;5.90;100.00
71424;BME280;59240;51.370;-0.486;2022-11-04T07:55:32;100900.63;;;6.03;100.00
71424;BME280;59240;51.370;-0.486;2022-11-04T07:58:05;100917.88;;;6.08;100.00
71424;BME280;59240;51.370;-0.486;2022-11-04T08:00:32;100917.00;;;6.07;100.00
71424;BME280;59240;51.370;-0.486;2022-11-04T08:02:58;100942.88;;;6.12;100.00
71424;BME280;59240;51.370;-0.486;2022-11-04T08:05:25;100936.81;;;6.10;100.00
71424;BME280;59240;51.370;-0.486;2022-11-04T08:07:51;100938.56;;;6.05;100.00
71424;BME280;59240;51.370;-0.486;2022-11-04T08:10:18;100938.56;;;6.03;100.00
71424;BME280;59240;51.370;-0.486;2022-11-04T08:12:44;100954.06;;;6.08;100.00
71424;BME280;59240;51.370;-0.486;2022-11-04T08:15:11;100962.69;;;6.10;100.00
71424;BME280;59240;51.370;-0.486;2022-11-04T08:17:37;100924.75;;;5.87;100.00
71424;BME280;59240;51.370;-0.486;2022-11-04T08:20:04;100977.38;;;6.12;100.00
71424;BME280;59240;51.370;-0.486;2022-11-04T08:22:31;100971.34;;;6.12;100.00
71424;BME280;59240;51.370;-0.486;2022-11-04T08:24:58;100981.66;;;6.15;100.00
71424;BME280;59240;51.370;-0.486;2022-11-04T08:27:25;100995.44;;;6.15;100.00
71424;BME280;59240;51.370;-0.486;2022-11-04T08:29:51;100998.91;;;6.19;100.00
71424;BME280;59240;51.370;-0.486;2022-11-04T08:32:18;101004.94;;;6.22;100.00
71424;BME280;59240;51.370;-0.486;2022-11-04T08:34:44;100985.13;;;6.08;100.00
71424;BME280;59240;51.370;-0.486;2022-11-04T08:37:17;101017.88;;;6.27;100.00
71424;BME280;59240;51.370;-0.486;2022-11-04T08:39:43;101015.28;;;6.27;100.00
71424;BME280;59240;51.370;-0.486;2022-11-04T08:42:10;101028.22;;;6.24;100.00
71424;BME280;59240;51.370;-0.486;2022-11-04T08:44:36;101036.84;;;6.32;100.00
71424;BME280;59240;51.370;-0.486;2022-11-04T08:47:04;101039.41;;;6.37;100.00
71424;BME280;59240;51.370;-0.486;2022-11-04T08:49:31;101038.56;;;6.39;100.00
71424;BME280;59240;51.370;-0.486;2022-11-04T08:51:57;101044.59;;;6.40;100.00
71424;BME280;59240;51.370;-0.486;2022-11-04T08:54:26;101022.19;;;6.29;100.00
71424;BME280;59240;51.370;-0.486;2022-11-04T08:56:53;101054.94;;;6.50;100.00
71424;BME280;59240;51.370;-0.486;2022-11-04T08:59:19;101040.28;;;6.55;100.00
71424;BME280;59240;51.370;-0.486;2022-11-04T09:01:46;101042.00;;;6.53;100.00
71424;BME280;59240;51.370;-0.486;2022-11-04T09:04:13;101054.06;;;6.61;100.00
71424;BME280;59240;51.370;-0.486;2022-11-04T09:06:42;101062.69;;;6.70;100.00
71424;BME280;59240;51.370;-0.486;2022-11-04T09:09:13;101052.34;;;6.69;100.00
71424;BME280;59240;51.370;-0.486;2022-11-04T09:11:41;101051.47;;;6.65;100.00
71424;BME280;59240;51.370;-0.486;2022-11-04T09:14:09;101070.44;;;6.82;100.00
71424;BME280;59240;51.370;-0.486;2022-11-04T09:16:37;101048.88;;;6.76;100.00
71424;BME280;59240;51.370;-0.486;2022-11-04T09:19:04;101066.09;;;6.92;100.00
71424;BME280;59240;51.370;-0.486;2022-11-04T09:21:31;101060.91;;;6.86;100.00
71424;BME280;59240;51.370;-0.486;2022-11-04T09:23:58;101066.09;;;6.92;100.00
71424;BME280;59240;51.370;-0.486;2022-11-04T09:26:25;101093.66;;;7.11;100.00
71424;BME280;59240;51.370;-0.486;2022-11-04T09:28:53;101087.59;;;7.17;100.00
71424;BME280;59240;51.370;-0.486;2022-11-04T09:31:21;101083.28;;;7.21;100.00
71424;BME280;59240;51.370;-0.486;2022-11-04T09:33:48;101090.13;;;7.34;100.00
71424;BME280;59240;51.370;-0.486;2022-11-04T09:36:15;101089.22;;;7.46;100.00
71424;BME280;59240;51.370;-0.486;2022-11-04T09:38:42;101074.50;;;7.52;100.00
71424;BME280;59240;51.370;-0.486;2022-11-04T09:46:53;101103.66;;;7.94;100.00
71424;BME280;59240;51.370;-0.486;2022-11-04T09:49:24;101096.69;;;8.02;100.00
71424;BME280;59240;51.370;-0.486;2022-11-04T09:51:53;101101.81;;;8.14;100.00
71424;BME280;59240;51.370;-0.486;2022-11-04T09:56:56;101111.19;;;8.34;100.00
71424;BME280;59240;51.370;-0.486;2022-11-04T09:59:31;101107.75;;;8.38;100.00
71424;BME280;59240;51.370;-0.486;2022-11-04T10:16:21;101146.03;;;9.11;100.00
71424;BME280;59240;51.370;-0.486;2022-11-04T10:19:18;101150.22;;;9.24;100.00
71424;BME280;59240;51.370;-0.486;2022-11-04T10:21:57;101165.72;;;9.37;100.00
71424;BME280;59240;51.370;-0.486;2022-11-04T10:27:03;101177.59;;;9.59;100.00
71424;BME280;59240;51.370;-0.486;2022-11-04T10:29:37;101187.81;;;9.74;100.00
71424;BME280;59240;51.370;-0.486;2022-11-04T10:32:13;101189.41;;;9.86;100.00
71424;BME280;59240;51.370;-0.486;2022-11-04T10:35:01;101191.03;;;9.96;100.00
71424;BME280;59240;51.370;-0.486;2022-11-04T10:37:30;101196.16;;;10.01;100.00
71424;BME280;59240;51.370;-0.486;2022-11-04T10:40:23;101200.34;;;10.12;100.00
71424;BME280;59240;51.370;-0.486;2022-11-04T10:42:52;101202.00;;;10.18;100.00
71424;BME280;59240;51.370;-0.486;2022-11-04T10:45:21;101198.47;;;10.25;100.00
71424;BME280;59240;51.370;-0.486;2022-11-04T10:48:02;101188.84;;;10.32;100.00
71424;BME280;59240;51.370;-0.486;2022-11-04T10:50:56;101187.75;;;10.47;100.00
71424;BME280;59240;51.370;-0.486;2022-11-04T10:53:28;101186.72;;;10.57;100.00
71424;BME280;59240;51.370;-0.486;2022-11-04T10:58:31;101186.38;;;10.77;100.00
71424;BME280;59240;51.370;-0.486;2022-11-04T11:01:29;101182.69;;;10.91;100.00
71424;BME280;59240;51.370;-0.486;2022-11-04T11:03:57;101187.53;;;11.13;100.00
71424;BME280;59240;51.370;-0.486;2022-11-04T11:06:26;101201.28;;;11.21;100.00
71424;BME280;59240;51.370;-0.486;2022-11-04T11:08:56;101209.13;;;11.21;100.00
71424;BME280;59240;51.370;-0.486;2022-11-04T11:11:45;101205.72;;;11.16;100.00
71424;BME280;59240;51.370;-0.486;2022-11-04T11:16:45;101201.22;;;11.24;100.00
71424;BME280;59240;51.370;-0.486;2022-11-04T11:19:16;101214.03;;;11.36;100.00
71424;BME280;59240;51.370;-0.486;2022-11-04T11:21:48;101215.72;;;11.40;100.00
71424;BME280;59240;51.370;-0.486;2022-11-04T11:24:25;101223.59;;;11.37;100.00
71424;BME280;59240;51.370;-0.486;2022-11-04T11:26:54;101234.69;;;11.48;100.00
71424;BME280;59240;51.370;-0.486;2022-11-04T11:31:49;101229.38;;;11.55;100.00
71424;BME280;59240;51.370;-0.486;2022-11-04T11:34:24;101236.13;;;11.65;100.00
71424;BME280;59240;51.370;-0.486;2022-11-04T11:36:56;101249.94;;;11.70;100.00
71424;BME280;59240;51.370;-0.486;2022-11-04T11:39:25;101249.22;;;11.63;99.71
71424;BME280;59240;51.370;-0.486;2022-11-04T11:41:57;101248.53;;;11.54;99.18
71424;BME280;59240;51.370;-0.486;2022-11-04T11:44:33;101256.31;;;11.55;100.00
71424;BME280;59240;51.370;-0.486;2022-11-04T11:47:05;101255.41;;;11.58;98.47
71424;BME280;59240;51.370;-0.486;2022-11-04T11:49:34;101257.09;;;11.60;99.79
71424;BME280;59240;51.370;-0.486;2022-11-04T11:55:02;101245.50;;;11.75;100.00
71424;BME280;59240;51.370;-0.486;2022-11-04T12:00:35;101254.13;;;11.82;94.26
71424;BME280;59240;51.370;-0.486;2022-11-04T12:03:37;101261.25;;;11.70;97.58
71424;BME280;59240;51.370;-0.486;2022-11-04T12:07:06;101255.16;;;11.70;99.46
71424;BME280;59240;51.370;-0.486;2022-11-04T12:13:35;101253.50;;;11.66;99.99
71424;BME280;59240;51.370;-0.486;2022-11-04T12:21:41;101268.16;;;11.73;96.25
71424;BME280;59240;51.370;-0.486;2022-11-04T12:24:22;101270.72;;;11.76;95.17
71424;BME280;59240;51.370;-0.486;2022-11-04T12:30:02;101248.53;;;11.54;93.98
71424;BME280;59240;51.370;-0.486;2022-11-04T12:33:14;101280.59;;;11.60;94.65
71424;BME280;59240;51.370;-0.486;2022-11-04T12:40:56;101256.59;;;11.38;96.14
71424;BME280;59240;51.370;-0.486;2022-11-04T12:52:03;101298.03;;;11.06;94.00
71424;BME280;59240;51.370;-0.486;2022-11-04T13:02:36;101318.47;;;10.75;94.76
71424;BME280;59240;51.370;-0.486;2022-11-04T13:07:53;101316.22;;;10.49;87.67
71424;BME280;59240;51.370;-0.486;2022-11-04T13:10:26;101317.84;;;10.56;91.10
71424;BME280;59240;51.370;-0.486;2022-11-04T13:13:00;101321.34;;;10.55;91.06
71424;BME280;59240;51.370;-0.486;2022-11-04T13:15:30;101315.31;;;10.51;91.97
71424;BME280;59240;51.370;-0.486;2022-11-04T13:18:04;101336.88;;;10.64;93.42
71424;BME280;59240;51.370;-0.486;2022-11-04T13:20:44;101330.81;;;10.60;95.24
71424;BME280;59240;51.370;-0.486;2022-11-04T13:23:21;101332.63;;;10.57;93.16
71424;BME280;59240;51.370;-0.486;2022-11-04T13:25:50;101340.38;;;10.60;91.13
71424;BME280;59240;51.370;-0.486;2022-11-04T13:28:19;101343.03;;;10.55;87.29
71424;BME280;59240;51.370;-0.486;2022-11-04T13:30:52;101339.59;;;10.53;91.14
71424;BME280;59240;51.370;-0.486;2022-11-04T13:33:34;101338.75;;;10.50;93.94
71424;BME280;59240;51.370;-0.486;2022-11-04T13:36:35;101334.41;;;10.52;95.62
71424;BME280;59240;51.370;-0.486;2022-11-04T13:39:20;101324.88;;;10.49;92.29
71424;BME280;59240;51.370;-0.486;2022-11-04T13:42:08;101316.19;;;10.52;97.13
71424;BME280;59240;51.370;-0.486;2022-11-04T13:44:42;101310.25;;;10.39;94.38
71424;BME280;59240;51.370;-0.486;2022-11-04T13:47:23;101328.34;;;10.50;95.12
71424;BME280;59240;51.370;-0.486;2022-11-04T13:49:53;101323.19;;;10.47;92.60
71424;BME280;59240;51.370;-0.486;2022-11-04T13:52:27;101323.19;;;10.47;91.96
71424;BME280;59240;51.370;-0.486;2022-11-04T13:55:04;101309.28;;;10.48;92.87
71424;BME280;59240;51.370;-0.486;2022-11-04T13:57:49;101318.59;;;10.65;96.01
71424;BME280;59240;51.370;-0.486;2022-11-04T14:00:22;101319.34;;;10.74;93.12
71424;BME280;59240;51.370;-0.486;2022-11-04T14:02:52;101320.16;;;10.79;91.21
71424;BME280;59240;51.370;-0.486;2022-11-04T14:10:59;101342.41;;;11.01;95.13
71424;BME280;59240;51.370;-0.486;2022-11-04T14:18:30;101373.44;;;11.19;92.38
71424;BME280;59240;51.370;-0.486;2022-11-04T14:21:15;101362.97;;;11.21;94.15
71424;BME280;59240;51.370;-0.486;2022-11-04T14:23:45;101368.09;;;11.27;89.60
71424;BME280;59240;51.370;-0.486;2022-11-04T14:26:14;101353.28;;;11.29;86.83
71424;BME280;59240;51.370;-0.486;2022-11-04T14:28:44;101367.13;;;11.34;91.77
71424;BME280;59240;51.370;-0.486;2022-11-04T14:31:13;101373.22;;;11.32;89.00
71424;BME280;59240;51.370;-0.486;2022-11-04T14:33:50;101387.06;;;11.37;91.53
71424;BME280;59240;51.370;-0.486;2022-11-04T14:46:40;101399.75;;;11.61;90.88
71424;BME280;59240;51.370;-0.486;2022-11-04T14:49:29;101409.44;;;11.51;83.57
71424;BME280;59240;51.370;-0.486;2022-11-04T14:51:57;101408.78;;;11.37;87.09
71424;BME280;59240;51.370;-0.486;2022-11-04T14:54:25;101426.16;;;11.38;93.40
71424;BME280;59240;51.370;-0.486;2022-11-04T14:57:08;101412.44;;;11.27;92.23
71424;BME280;59240;51.370;-0.486;2022-11-04T14:59:38;101420.31;;;11.26;93.41
71424;BME280;59240;51.370;-0.486;2022-11-04T15:02:12;101400.47;;;11.14;91.22
71424;BME280;59240;51.370;-0.486;2022-11-04T15:04:48;101388.34;;;11.10;91.22
71424;BME280;59240;51.370;-0.486;2022-11-04T15:07:33;101402.72;;;11.37;92.06
71424;BME280;59240;51.370;-0.486;2022-11-04T15:10:03;101408.63;;;11.49;90.27
71424;BME280;59240;51.370;-0.486;2022-11-04T15:12:43;101374.91;;;11.36;88.65
71424;BME280;59240;51.370;-0.486;2022-11-04T15:20:31;101411.88;;;11.64;89.93
71424;BME280;59240;51.370;-0.486;2022-11-04T15:23:00;101411.84;;;11.67;91.10
71424;BME280;59240;51.370;-0.486;2022-11-04T15:25:28;101398.75;;;11.68;89.60
71424;BME280;59240;51.370;-0.486;2022-11-04T15:27:55;101402.31;;;11.63;88.43
71424;BME280;59240;51.370;-0.486;2022-11-04T15:30:27;101404.00;;;11.65;91.71